Time;durP1;ratioP1;P1;durP2;ratioP2;P2;SDS_P1;SDS_P2;PMS_P1;PMS_P2;Temp;Humidity;BMP_temperature;BMP_pressure;BME280_temperature;BME280_humidity;BME280_pressure;Samples;Min_cycle;Max_cycle;Signal;HPM_P1;HPM_P2
2022/03/27 00:01:18;;;;;;;15.60;11.00;;;;;;;-143.84;36.68;45037.66;5030065;28;20442;-75
2022/03/27 00:03:45;;;;;;;18.30;11.23;;;;;;;-143.84;36.63;45039.53;5029740;28;20935;-75
2022/03/27 00:06:12;;;;;;;25.20;11.40;;;;;;;-143.84;36.78;45049.06;5029538;28;20993;-75
2022/03/27 00:08:39;;;;;;;17.50;10.73;;;;;;;-143.84;36.71;45045.25;5029730;28;21149;-76
2022/03/27 00:11:27;;;;;;;17.97;10.87;;;;;;;-143.84;36.88;45058.59;5030086;28;20454;-77
2022/03/27 00:13:55;;;;;;;16.80;12.10;;;;;;;-143.84;37.10;45037.66;5029350;28;20526;-73
2022/03/27 00:16:23;;;;;;;17.33;12.57;;;;;;;-143.84;36.90;45033.84;5028751;28;20441;-73
2022/03/27 00:18:50;;;;;;;19.67;12.63;;;;;;;-143.84;36.68;45022.41;5028632;28;20453;-73
2022/03/27 00:21:20;;;;;;;22.83;11.50;;;;;;;-143.84;36.71;45033.84;5028740;28;20516;-73
2022/03/27 00:23:47;;;;;;;22.43;12.90;;;;;;;-143.84;36.66;45043.34;5028631;28;21026;-73
2022/03/27 00:26:17;;;;;;;16.73;12.03;;;;;;;-143.84;36.53;45030.03;5021032;28;20825;-73
2022/03/27 00:28:45;;;;;;;18.93;12.93;;;;;;;-143.84;36.53;45028.13;5028747;28;20453;-73
2022/03/27 00:31:13;;;;;;;18.20;13.07;;;;;;;-143.84;36.66;45026.22;5032932;28;20455;-73
2022/03/27 00:33:43;;;;;;;25.93;12.60;;;;;;;-143.84;36.58;45037.66;5032552;28;20449;-73
2022/03/27 00:36:13;;;;;;;15.73;11.40;;;;;;;-143.84;36.33;45033.84;5032603;28;20481;-73
2022/03/27 00:38:41;;;;;;;18.60;12.10;;;;;;;-143.84;36.39;45041.44;5032553;28;20528;-73
2022/03/27 00:41:08;;;;;;;14.90;11.43;;;;;;;-143.84;36.15;45033.84;5032572;28;20457;-73
2022/03/27 00:43:37;;;;;;;20.03;11.77;;;;;;;-143.84;36.16;45062.41;5032805;28;20445;-73
2022/03/27 00:46:06;;;;;;;18.40;13.07;;;;;;;-143.84;36.12;45030.03;5032591;28;20438;-73
2022/03/27 00:48:35;;;;;;;17.10;11.80;;;;;;;-143.84;36.02;45033.84;5032359;28;20854;-73
2022/03/27 00:51:02;;;;;;;17.60;11.80;;;;;;;-143.84;35.90;45026.22;5032684;28;20519;-73
2022/03/27 00:53:29;;;;;;;20.50;12.43;;;;;;;-143.84;35.96;45049.06;5032328;28;20925;-73
2022/03/27 00:55:57;;;;;;;27.70;12.67;;;;;;;-143.84;36.02;45045.25;5041560;28;20566;-73
2022/03/27 00:58:24;;;;;;;21.97;12.50;;;;;;;-143.84;36.02;45031.94;5048413;28;20519;-73
2022/03/27 01:00:58;;;;;;;15.33;12.57;;;;;;;-143.84;35.95;45041.44;5046266;28;20510;-73
2022/03/27 01:03:27;;;;;;;26.03;12.50;;;;;;;-143.84;35.65;45094.78;5052174;28;20452;-73
2022/03/27 01:05:57;;;;;;;17.33;11.73;;;;;;;-143.84;35.71;45056.69;5052466;28;20439;-73
2022/03/27 01:11:17;;;;;;;17.53;11.43;;;;;;;-143.84;35.82;45014.78;5052386;28;20550;-73
2022/03/27 01:13:50;;;;;;;15.77;10.47;;;;;;;-143.84;35.65;45022.41;5051905;28;20960;-73
2022/03/27 01:16:32;;;;;;;15.10;11.37;;;;;;;-143.84;35.67;45026.22;5052029;28;20476;-73
2022/03/27 01:19:00;;;;;;;12.00;9.97;;;;;;;-143.84;35.72;45031.94;5052256;28;20459;-72
2022/03/27 01:21:29;;;;;;;19.60;11.90;;;;;;;-143.84;35.34;45028.13;5051934;28;20865;-73
2022/03/27 01:23:57;;;;;;;18.83;11.47;;;;;;;-143.84;35.51;45047.16;5051756;28;20510;-73
2022/03/27 01:26:24;;;;;;;17.50;11.03;;;;;;;-143.84;35.44;45045.25;5051709;28;20511;-73
2022/03/27 01:28:52;;;;;;;17.37;11.37;;;;;;;-143.84;35.52;45022.41;5051739;28;20483;-73
2022/03/27 01:31:20;;;;;;;14.87;10.97;;;;;;;-143.84;35.32;45049.06;5051442;28;20888;-73
2022/03/27 01:33:47;;;;;;;22.67;11.87;;;;;;;-143.84;35.33;45026.22;5051543;28;20530;-73
2022/03/27 01:36:23;;;;;;;18.83;11.40;;;;;;;-143.84;35.53;45014.78;5051767;28;20476;-73
2022/03/27 01:38:53;;;;;;;15.90;10.10;;;;;;;-143.84;35.29;45049.06;5051582;28;20918;-73
2022/03/27 01:41:21;;;;;;;24.13;10.73;;;;;;;-143.84;35.18;45014.78;5050176;28;20453;-73
2022/03/27 01:43:48;;;;;;;11.87;10.37;;;;;;;-143.84;35.11;45031.94;5051624;28;20521;-73
2022/03/27 01:46:15;;;;;;;14.10;11.13;;;;;;;-143.84;35.15;45024.31;5051341;28;20502;-73
2022/03/27 01:48:43;;;;;;;24.37;11.80;;;;;;;-143.84;35.13;45012.88;5051188;28;20464;-73
2022/03/27 01:51:10;;;;;;;16.67;11.57;;;;;;;-143.84;35.27;45028.13;5051314;28;20444;-73
2022/03/27 01:53:39;;;;;;;18.27;11.97;;;;;;;-143.84;35.19;45022.41;5051222;28;20444;-73
2022/03/27 01:56:08;;;;;;;14.73;10.53;;;;;;;-143.84;35.08;45020.50;5051159;28;20580;-73
2022/03/27 01:58:40;;;;;;;12.63;10.73;;;;;;;-143.84;35.22;45018.59;5051054;28;20438;-73
2022/03/27 02:01:07;;;;;;;21.93;11.63;;;;;;;-143.84;35.34;45035.75;5050882;28;20820;-73
2022/03/27 02:03:34;;;;;;;15.60;11.13;;;;;;;-143.84;35.67;45041.44;5051034;28;20920;-73
2022/03/27 02:06:05;;;;;;;12.40;10.13;;;;;;;-143.84;35.22;45098.56;5050941;28;20510;-73
2022/03/27 02:08:33;;;;;;;15.90;10.57;;;;;;;-143.84;35.39;45031.94;5051183;28;20563;-72
2022/03/27 02:11:01;;;;;;;14.30;9.60;;;;;;;-143.84;35.41;45035.75;5051155;28;20947;-73
2022/03/27 02:13:30;;;;;;;14.90;12.00;;;;;;;-143.84;35.39;45054.78;5050932;28;20441;-73
2022/03/27 02:15:57;;;;;;;14.13;10.50;;;;;;;-143.84;35.25;45035.75;5050568;28;20488;-72
2022/03/27 02:18:27;;;;;;;17.53;11.37;;;;;;;-143.84;35.34;45037.66;5050796;28;20452;-73
2022/03/27 02:20:55;;;;;;;16.97;11.37;;;;;;;-143.84;35.14;45020.50;5050720;28;20441;-73
2022/03/27 02:23:23;;;;;;;23.30;11.53;;;;;;;-143.84;35.16;45045.25;5050660;28;20453;-73
2022/03/27 02:25:50;;;;;;;22.57;12.27;;;;;;;-143.84;35.33;45039.53;5050595;28;20556;-73
2022/03/27 02:28:18;;;;;;;14.37;10.03;;;;;;;-143.84;35.14;45037.66;5050752;28;20510;-73
2022/03/27 02:30:47;;;;;;;21.77;11.87;;;;;;;-143.84;35.34;45016.69;5050440;28;20858;-73
2022/03/27 02:33:14;;;;;;;20.57;11.27;;;;;;;-143.84;35.25;45045.25;5050786;28;20869;-73
2022/03/27 02:35:41;;;;;;;17.40;11.23;;;;;;;-143.84;35.48;45068.13;5050586;28;20561;-73
2022/03/27 02:38:09;;;;;;;17.27;11.90;;;;;;;-143.84;35.35;44999.56;5050375;28;20480;-72
2022/03/27 02:40:37;;;;;;;18.50;11.73;;;;;;;-143.84;35.33;45045.25;5050350;28;20451;-72
2022/03/27 02:43:05;;;;;;;14.60;10.00;;;;;;;-143.84;35.39;45070.00;5050413;28;20444;-73
2022/03/27 02:45:32;;;;;;;13.60;10.80;;;;;;;-143.84;35.30;45045.25;5050236;28;20433;-73
2022/03/27 02:48:01;;;;;;;18.93;9.80;;;;;;;-143.84;35.39;45045.25;5050219;28;20484;-73
2022/03/27 02:50:29;;;;;;;17.10;10.53;;;;;;;-143.84;35.39;45039.53;5050153;28;20511;-72
2022/03/27 02:52:57;;;;;;;15.30;10.73;;;;;;;-143.84;35.47;45033.84;5049821;28;20438;-72
2022/03/27 02:55:24;;;;;;;20.00;9.83;;;;;;;-143.84;35.30;45041.44;5049729;28;20566;-73
2022/03/27 02:57:53;;;;;;;18.53;10.77;;;;;;;-143.84;35.56;45016.69;5049938;28;20611;-73
2022/03/27 03:00:22;;;;;;;27.40;11.27;;;;;;;-143.84;35.51;45047.16;5050287;28;20441;-73
2022/03/27 03:02:50;;;;;;;16.90;10.70;;;;;;;-143.84;35.66;45022.41;5050233;28;20480;-73
2022/03/27 03:05:19;;;;;;;15.57;10.77;;;;;;;-143.84;35.59;45022.41;5049980;28;20448;-73
2022/03/27 03:07:47;;;;;;;23.77;10.80;;;;;;;-143.84;35.58;45033.84;5049954;28;20528;-73
2022/03/27 03:10:15;;;;;;;24.90;12.13;;;;;;;-143.84;35.71;45022.41;5049777;28;20453;-73
2022/03/27 03:12:43;;;;;;;14.50;9.90;;;;;;;-143.84;35.96;45041.44;5049614;28;20803;-73
2022/03/27 03:15:11;;;;;;;11.83;9.77;;;;;;;-143.84;35.98;45064.31;5049718;28;20906;-73
2022/03/27 03:17:38;;;;;;;12.50;9.80;;;;;;;-143.84;35.96;45030.03;5049789;28;20434;-73
2022/03/27 03:20:07;;;;;;;15.27;10.53;;;;;;;-143.84;36.04;45024.31;5049587;28;21028;-73
2022/03/27 03:22:37;;;;;;;15.90;10.27;;;;;;;-143.84;36.11;45037.66;5049548;28;20950;-73
2022/03/27 03:25:05;;;;;;;13.33;10.00;;;;;;;-143.84;36.25;45056.69;5049418;28;20444;-73
2022/03/27 03:27:32;;;;;;;19.93;10.73;;;;;;;-143.84;36.13;45054.78;5049434;28;20494;-73
2022/03/27 03:30:00;;;;;;;24.57;11.80;;;;;;;-143.84;36.33;45030.03;5049492;28;20448;-72
2022/03/27 03:32:28;;;;;;;22.97;12.47;;;;;;;-143.84;36.22;45043.34;5049443;28;20445;-73
2022/03/27 03:34:55;;;;;;;21.83;11.27;;;;;;;-143.84;36.47;45039.53;5049443;28;20440;-73
2022/03/27 03:37:23;;;;;;;16.20;11.83;;;;;;;-143.84;36.30;45052.88;5049314;28;20491;-73
2022/03/27 03:39:52;;;;;;;24.30;12.07;;;;;;;-143.84;36.31;45026.22;5049246;28;20537;-73
2022/03/27 03:42:19;;;;;;;18.23;11.47;;;;;;;-143.84;36.56;45026.22;5049077;28;20441;-73
2022/03/27 03:44:46;;;;;;;17.80;11.00;;;;;;;-143.84;36.36;45052.88;5049175;28;20456;-73
2022/03/27 03:47:14;;;;;;;19.90;11.90;;;;;;;-143.84;36.56;45045.25;5049173;28;20506;-73
2022/03/27 03:49:41;;;;;;;17.70;11.27;;;;;;;-143.84;36.89;45037.66;5049579;28;20548;-73
2022/03/27 03:52:08;;;;;;;19.60;11.10;;;;;;;-143.84;36.76;45060.50;5049294;28;20507;-73
2022/03/27 03:54:36;;;;;;;16.87;11.30;;;;;;;-143.84;36.81;45060.50;5049393;28;20507;-73
2022/03/27 03:57:07;;;;;;;18.70;12.17;;;;;;;-143.84;37.08;45031.94;5048416;28;20562;-73
2022/03/27 03:59:36;;;;;;;18.47;11.50;;;;;;;-143.84;36.79;45028.13;5048776;28;20989;-73
2022/03/27 04:02:05;;;;;;;16.37;11.13;;;;;;;-143.84;37.23;45028.13;5048566;28;20448;-73
2022/03/27 04:04:34;;;;;;;23.70;11.10;;;;;;;-143.84;37.09;45062.41;5048048;28;20937;-73
2022/03/27 04:07:02;;;;;;;24.80;12.27;;;;;;;-143.84;37.14;45041.44;5048904;28;20445;-73
2022/03/27 04:09:30;;;;;;;17.50;12.17;;;;;;;-143.84;37.00;45066.22;5049076;28;20446;-73
2022/03/27 04:11:58;;;;;;;29.83;12.80;;;;;;;-143.84;37.26;45049.06;5048786;28;20464;-73
2022/03/27 04:14:28;;;;;;;16.93;12.33;;;;;;;-143.84;37.07;45052.88;5048895;28;20444;-73
2022/03/27 04:16:56;;;;;;;18.70;12.70;;;;;;;-143.84;37.18;45045.25;5048680;28;21004;-73
2022/03/27 04:19:24;;;;;;;24.10;12.47;;;;;;;-143.84;37.04;45033.84;5048940;28;20444;-70
2022/03/27 04:21:51;;;;;;;18.60;11.20;;;;;;;-143.84;37.27;45054.78;5048780;28;20444;-70
2022/03/27 04:24:18;;;;;;;27.00;12.43;;;;;;;-143.84;37.16;45041.44;5048832;28;20448;-70
2022/03/27 04:26:45;;;;;;;21.13;13.87;;;;;;;-143.84;37.47;45062.41;5048779;28;20499;-70
2022/03/27 04:29:12;;;;;;;18.53;12.20;;;;;;;-143.84;37.37;45049.06;5048779;28;20441;-71
2022/03/27 04:31:42;;;;;;;18.10;11.37;;;;;;;-143.84;37.54;45045.25;5048274;28;21210;-70
2022/03/27 04:34:10;;;;;;;21.80;11.67;;;;;;;-143.84;37.48;45039.53;5047856;28;21210;-70
2022/03/27 04:36:37;;;;;;;21.57;13.00;;;;;;;-143.84;37.75;45056.69;5045525;28;20499;-70
2022/03/27 04:39:05;;;;;;;27.70;12.87;;;;;;;-143.84;37.65;45068.13;5039252;28;20496;-70
2022/03/27 04:41:33;;;;;;;15.00;11.13;;;;;;;-143.84;37.70;45030.03;5035365;28;20463;-70
2022/03/27 04:44:00;;;;;;;16.30;11.30;;;;;;;-143.84;37.64;45033.84;5039517;28;20808;-75
2022/03/27 04:46:27;;;;;;;22.03;12.47;;;;;;;-143.84;37.70;45039.53;5037750;28;20434;-75
2022/03/27 04:48:56;;;;;;;19.50;13.37;;;;;;;-143.84;37.58;45041.44;5046143;28;20453;-75
2022/03/27 04:51:23;;;;;;;17.63;12.00;;;;;;;-143.84;37.47;45045.25;5049113;28;20433;-75
2022/03/27 04:53:50;;;;;;;22.20;13.87;;;;;;;-143.84;37.55;45050.97;5045126;28;20941;-71
2022/03/27 04:56:18;;;;;;;21.00;12.20;;;;;;;-143.84;37.79;45066.22;5048563;28;20559;-71
2022/03/27 04:58:45;;;;;;;21.57;12.17;;;;;;;-143.84;37.68;45030.03;5048393;28;20921;-69
2022/03/27 05:01:13;;;;;;;21.23;12.90;;;;;;;-143.84;37.09;45030.03;5042318;28;20431;-76
2022/03/27 05:03:40;;;;;;;21.03;11.97;;;;;;;-143.84;36.70;45012.88;5043547;28;20445;-78
2022/03/27 05:06:09;;;;;;;19.50;12.53;;;;;;;-143.84;36.83;45024.31;5046828;28;20472;-72
2022/03/27 05:08:37;;;;;;;17.63;11.60;;;;;;;-143.84;36.38;45012.88;5037094;28;20467;-72
2022/03/27 05:11:05;;;;;;;23.50;12.20;;;;;;;-143.84;36.58;45028.13;5040833;28;20462;-69
2022/03/27 05:13:32;;;;;;;20.13;12.40;;;;;;;-143.84;36.10;45014.78;5035128;28;21655;-70
2022/03/27 05:15:59;;;;;;;19.53;12.00;;;;;;;-143.84;35.88;45020.50;5048860;28;20481;-70
2022/03/27 05:18:26;;;;;;;20.80;11.93;;;;;;;-143.84;36.07;45016.69;5039145;28;20505;-70
2022/03/27 05:20:53;;;;;;;18.60;12.37;;;;;;;-143.84;35.38;45028.13;5039427;28;20444;-70
2022/03/27 05:23:22;;;;;;;23.33;11.87;;;;;;;-143.84;35.54;45028.13;5037562;28;20525;-70
2022/03/27 05:25:50;;;;;;;18.93;10.83;;;;;;;-143.84;34.98;45030.03;5040286;28;20453;-71
2022/03/27 05:28:18;;;;;;;23.30;11.77;;;;;;;-143.84;34.83;45018.59;5049035;28;20538;-72
2022/03/27 05:30:46;;;;;;;37.97;12.60;;;;;;;-143.84;34.74;45018.59;5035451;28;20434;-72
2022/03/27 05:33:13;;;;;;;21.27;13.73;;;;;;;-143.84;34.00;45005.28;5041497;28;20456;-72
2022/03/27 05:35:41;;;;;;;21.13;11.97;;;;;;;-143.84;33.95;44997.66;5041715;28;20525;-73
2022/03/27 05:38:08;;;;;;;15.70;11.77;;;;;;;-143.84;33.61;45007.19;5039901;28;20449;-73
2022/03/27 05:40:37;;;;;;;24.43;13.97;;;;;;;-143.84;33.23;45001.47;5041529;28;20525;-73
2022/03/27 05:43:05;;;;;;;28.40;12.53;;;;;;;-143.84;33.08;45010.97;5042472;28;20450;-72
2022/03/27 05:45:32;;;;;;;20.37;13.10;;;;;;;-143.84;33.03;44991.94;5043836;28;20446;-73
2022/03/27 05:47:59;;;;;;;31.57;13.30;;;;;;;-143.84;32.75;45026.22;5036697;28;20437;-73
2022/03/27 05:50:26;;;;;;;18.30;12.07;;;;;;;-143.84;32.62;45001.47;5043133;28;20441;-73
2022/03/27 05:52:54;;;;;;;17.63;12.43;;;;;;;-143.84;32.67;45012.88;5041786;28;20459;-71
2022/03/27 05:55:22;;;;;;;23.10;14.77;;;;;;;-143.84;32.26;44986.22;5042932;28;20479;-74
2022/03/27 05:57:51;;;;;;;26.77;15.03;;;;;;;-143.84;32.16;44990.03;5035754;28;20555;-80
2022/03/27 06:00:21;;;;;;;21.30;13.67;;;;;;;-143.84;32.13;44991.94;5038693;28;20458;-74
2022/03/27 06:02:49;;;;;;;23.53;16.60;;;;;;;-143.84;31.96;45016.69;5038695;28;20453;-74
2022/03/27 06:05:17;;;;;;;26.27;14.77;;;;;;;-143.84;31.86;44978.63;5041213;28;21043;-73
2022/03/27 06:07:50;;;;;;;25.47;14.00;;;;;;;-143.84;31.97;44972.91;5042417;28;20468;-73
2022/03/27 06:10:20;;;;;;;20.53;14.40;;;;;;;-143.84;31.98;44990.03;5048117;28;20459;-72
2022/03/27 06:12:47;;;;;;;21.10;14.13;;;;;;;-143.84;31.98;44997.66;5041126;28;20465;-72
2022/03/27 06:15:16;;;;;;;23.43;13.87;;;;;;;-143.84;32.17;45003.38;5046511;28;20999;-73
2022/03/27 06:17:45;;;;;;;28.10;15.73;;;;;;;-143.84;32.35;44972.91;5050383;28;20538;-73
2022/03/27 06:20:14;;;;;;;24.30;15.50;;;;;;;-143.84;32.41;44993.84;5039276;28;20453;-72
2022/03/27 06:22:42;;;;;;;23.67;14.60;;;;;;;-143.84;32.36;45022.41;5038828;28;20461;-73
2022/03/27 06:25:11;;;;;;;21.33;15.13;;;;;;;-143.84;32.38;44984.31;5041256;28;20438;-74
2022/03/27 06:27:39;;;;;;;37.60;15.30;;;;;;;-143.84;32.44;44997.66;5032567;28;20505;-74
2022/03/27 06:30:08;;;;;;;20.70;14.37;;;;;;;-143.84;32.52;44982.41;5045941;28;20450;-74
2022/03/27 06:32:37;;;;;;;24.23;15.43;;;;;;;-143.84;32.47;44984.31;5040319;28;20454;-74
2022/03/27 06:35:06;;;;;;;20.93;13.50;;;;;;;-143.84;32.40;44986.22;5037569;28;21020;-72
2022/03/27 06:37:34;;;;;;;28.93;14.60;;;;;;;-143.84;32.35;44995.75;5032665;28;20505;-73
2022/03/27 06:40:02;;;;;;;19.43;13.70;;;;;;;-143.84;32.49;44988.13;5030544;28;21070;-73
2022/03/27 06:42:30;;;;;;;25.03;15.80;;;;;;;-143.84;32.46;44990.03;5030942;28;20477;-74
2022/03/27 06:44:58;;;;;;;22.47;13.73;;;;;;;-143.84;32.55;45007.19;5031008;28;20499;-74
2022/03/27 06:47:27;;;;;;;24.60;13.70;;;;;;;-143.84;32.24;44978.63;5038664;28;20425;-74
2022/03/27 06:49:58;;;;;;;24.93;15.07;;;;;;;-143.84;32.39;45005.28;5040731;28;20931;-74
2022/03/27 06:52:26;;;;;;;23.57;13.97;;;;;;;-143.84;32.54;44993.84;5040380;28;20444;-74
2022/03/27 06:54:55;;;;;;;21.70;15.23;;;;;;;-143.84;32.06;44988.13;5038841;28;20452;-74
2022/03/27 06:57:22;;;;;;;28.83;13.70;;;;;;;-143.84;32.20;44965.28;5040531;28;20504;-72
2022/03/27 07:05:22;;;;;;;30.63;14.20;;;;;;;-143.84;31.49;44991.94;5030706;28;20766;-73
2022/03/27 07:07:49;;;;;;;16.87;13.33;;;;;;;-143.84;31.57;44951.97;5030276;28;20534;-74
2022/03/27 07:10:17;;;;;;;24.20;15.10;;;;;;;-143.84;31.52;44978.63;5030395;28;20532;-74
2022/03/27 07:12:46;;;;;;;19.90;14.60;;;;;;;-143.84;31.41;44972.91;5030136;28;20456;-74
2022/03/27 07:15:13;;;;;;;19.57;14.60;;;;;;;-143.84;31.44;44984.31;5033177;28;20499;-74
2022/03/27 07:17:47;;;;;;;21.97;13.83;;;;;;;-143.84;31.79;44982.41;5030382;28;20475;-74
2022/03/27 07:20:19;;;;;;;20.93;14.50;;;;;;;-143.84;31.75;44972.91;5032382;28;20487;-74
2022/03/27 07:22:48;;;;;;;26.50;14.60;;;;;;;-143.84;31.94;45012.88;5029754;28;20440;-74
2022/03/27 07:25:15;;;;;;;22.10;14.30;;;;;;;-143.84;32.15;44990.03;5029891;28;20510;-74
2022/03/27 07:27:43;;;;;;;26.50;15.70;;;;;;;-143.84;32.28;44972.91;5030197;28;20952;-74
2022/03/27 07:30:11;;;;;;;18.37;12.90;;;;;;;-143.84;32.61;44972.91;5029741;28;20432;-74
2022/03/27 07:32:39;;;;;;;21.20;14.23;;;;;;;-143.84;32.30;44974.81;5029031;28;20448;-74
2022/03/27 07:35:09;;;;;;;25.53;14.43;;;;;;;-143.84;32.28;44980.53;5033089;28;21036;-74
2022/03/27 07:37:37;;;;;;;23.00;13.90;;;;;;;-143.84;32.60;45003.38;5048478;28;20483;-74
2022/03/27 07:40:08;;;;;;;25.53;14.20;;;;;;;-143.84;32.67;45016.69;5047332;28;20953;-74
2022/03/27 07:42:36;;;;;;;27.80;16.23;;;;;;;-143.84;32.89;45003.38;5048536;28;20446;-74
2022/03/27 07:45:05;;;;;;;28.63;20.37;;;;;;;-143.84;33.10;45010.97;5048258;28;20515;-74
2022/03/27 07:47:33;;;;;;;35.67;20.60;;;;;;;-143.84;33.25;44980.53;5048217;28;20442;-74
2022/03/27 07:50:00;;;;;;;30.10;18.80;;;;;;;-143.84;33.43;44990.03;5049147;28;20480;-74
2022/03/27 07:52:28;;;;;;;31.63;20.10;;;;;;;-143.84;33.91;44986.22;5048520;28;20955;-73
2022/03/27 07:54:55;;;;;;;29.00;16.70;;;;;;;-143.84;33.43;44988.13;5050050;28;20900;-74
2022/03/27 07:57:25;;;;;;;29.40;17.10;;;;;;;-143.84;33.84;44982.41;5069488;28;21014;-73
2022/03/27 07:59:53;;;;;;;29.73;13.60;;;;;;;-143.84;32.71;44976.72;5069292;28;20845;-74
2022/03/27 08:02:21;;;;;;;21.33;12.73;;;;;;;-143.84;33.06;44999.56;5069120;28;20945;-74
2022/03/27 08:04:48;;;;;;;21.03;12.90;;;;;;;-143.84;31.95;44991.94;5068774;28;20450;-75
2022/03/27 08:07:16;;;;;;;18.20;12.23;;;;;;;-143.84;32.17;44969.09;5069260;28;20529;-76
2022/03/27 08:09:43;;;;;;;23.73;11.30;;;;;;;-143.84;31.01;44980.53;5069466;28;20441;-73
2022/03/27 08:12:11;;;;;;;25.57;11.60;;;;;;;-143.84;30.39;44938.63;5069688;28;20938;-78
2022/03/27 08:14:43;;;;;;;16.83;11.17;;;;;;;-143.84;30.61;44976.72;5069238;28;20441;-75
2022/03/27 08:17:11;;;;;;;15.70;9.73;;;;;;;-143.84;29.61;44980.53;5067515;28;20491;-74
2022/03/27 08:19:38;;;;;;;17.67;10.13;;;;;;;-143.84;30.20;44963.38;5067527;28;20995;-74
2022/03/27 08:22:05;;;;;;;17.70;9.77;;;;;;;-143.84;30.65;44976.72;5068605;28;20444;-74
2022/03/27 08:24:33;;;;;;;11.83;10.10;;;;;;;-143.84;30.01;44925.31;5068378;28;20441;-74
2022/03/27 08:27:00;;;;;;;19.20;10.00;;;;;;;-143.84;29.44;44931.00;5068897;28;20459;-73
2022/03/27 08:29:29;;;;;;;17.10;10.67;;;;;;;-143.84;28.45;44931.00;5069018;28;20475;-73
2022/03/27 08:32:00;;;;;;;12.60;9.03;;;;;;;-143.84;28.39;44913.88;5069025;28;21250;-74
2022/03/27 08:34:28;;;;;;;18.27;9.90;;;;;;;-143.84;28.16;44910.06;5068388;28;20451;-74
2022/03/27 08:36:56;;;;;;;17.17;9.70;;;;;;;-143.84;27.84;44923.41;5068863;28;20476;-74
2022/03/27 08:39:23;;;;;;;17.83;9.73;;;;;;;-143.84;27.66;44896.75;5068913;28;20440;-74
2022/03/27 08:41:54;;;;;;;25.43;9.90;;;;;;;-143.84;27.28;44906.25;5068881;28;20435;-74
2022/03/27 08:44:24;;;;;;;19.03;10.57;;;;;;;-143.84;27.73;44913.88;5068776;28;20502;-74
2022/03/27 08:46:53;;;;;;;18.23;8.83;;;;;;;-143.84;26.98;44902.44;5068724;28;20451;-74
2022/03/27 08:49:37;;;;;;;11.97;9.50;;;;;;;-143.84;26.88;44929.09;5068663;28;20477;-74
2022/03/27 08:52:11;;;;;;;20.57;10.73;;;;;;;-143.84;27.02;44906.25;5072513;28;20499;-74
2022/03/27 08:54:43;;;;;;;23.70;10.47;;;;;;;-143.84;27.10;44913.88;5073071;28;20441;-74
2022/03/27 08:57:24;;;;;;;20.83;10.20;;;;;;;-143.84;27.16;44934.81;5052954;28;20568;-74
2022/03/27 08:59:54;;;;;;;25.13;9.87;;;;;;;-143.84;27.42;44902.44;5052997;28;20473;-74
2022/03/27 09:02:23;;;;;;;16.23;9.90;;;;;;;-143.84;27.28;44908.16;5052758;28;20436;-74
2022/03/27 09:04:55;;;;;;;13.67;9.07;;;;;;;-143.84;26.41;44896.75;5052595;28;20446;-73
2022/03/27 09:07:24;;;;;;;16.70;9.83;;;;;;;-143.84;26.42;44913.88;5052164;28;20441;-73
2022/03/27 09:09:51;;;;;;;18.30;10.10;;;;;;;-143.84;26.72;44910.06;5052418;28;20433;-74
2022/03/27 09:12:21;;;;;;;27.67;9.47;;;;;;;-143.84;26.65;44904.34;5049336;28;20442;-74
2022/03/27 09:14:49;;;;;;;21.93;9.37;;;;;;;-143.84;26.87;44921.50;5043057;28;20448;-74
2022/03/27 09:17:16;;;;;;;14.70;9.60;;;;;;;-143.84;26.60;44931.00;5052005;28;21071;-74
2022/03/27 09:19:52;;;;;;;32.70;19.93;;;;;;;-143.84;26.37;44938.63;5052468;28;21124;-74
2022/03/27 09:22:21;;;;;;;66.47;42.50;;;;;;;-143.84;26.74;44936.72;5052993;28;20442;-74
2022/03/27 09:24:56;;;;;;;19.83;14.00;;;;;;;-143.84;26.81;44904.34;5052467;28;21304;-73
2022/03/27 09:27:30;;;;;;;18.47;10.40;;;;;;;-143.84;26.69;44910.06;5052473;28;21009;-74
2022/03/27 09:30:06;;;;;;;14.17;10.63;;;;;;;-143.84;26.63;44931.00;5052755;28;20520;-73
2022/03/27 09:32:36;;;;;;;21.93;11.20;;;;;;;-143.84;26.97;44921.50;5051798;28;21289;-74
2022/03/27 09:35:08;;;;;;;19.23;9.90;;;;;;;-143.84;27.28;44919.59;5033917;28;20460;-73
2022/03/27 09:37:37;;;;;;;16.83;10.13;;;;;;;-143.84;27.63;44940.53;5032103;28;20481;-74
2022/03/27 09:40:06;;;;;;;21.37;10.97;;;;;;;-143.84;26.82;44919.59;5032385;28;20442;-73
2022/03/27 09:42:33;;;;;;;15.73;10.10;;;;;;;-143.84;27.92;44923.41;5032256;28;20807;-73
2022/03/27 09:45:14;;;;;;;18.20;10.63;;;;;;;-143.84;27.45;44927.19;5032627;28;20909;-74
2022/03/27 09:47:43;;;;;;;17.13;10.23;;;;;;;-143.84;26.58;44934.81;5031875;28;20442;-74
2022/03/27 09:50:31;;;;;;;11.50;7.70;;;;;;;-143.84;26.07;44906.25;5032302;28;20439;-74
2022/03/27 09:53:21;;;;;;;17.57;9.07;;;;;;;-143.84;26.22;44938.63;5032506;28;20492;-75
2022/03/27 09:55:54;;;;;;;23.03;8.80;;;;;;;-143.84;26.57;44919.59;5039891;28;20570;-73
2022/03/27 09:58:34;;;;;;;21.20;11.53;;;;;;;-143.84;28.47;44923.41;5051599;28;20507;-73
2022/03/27 10:01:09;;;;;;;20.67;12.00;;;;;;;-143.84;29.01;44942.44;5052433;28;20444;-75
2022/03/27 10:03:37;;;;;;;30.80;12.80;;;;;;;-143.84;30.54;44942.44;5048911;28;20535;-74
